sensor_id;sensor_type;location;lat;lon;timestamp;P1;durP1;ratioP1;P2;durP2;ratioP2
69244;SDS011;56357;52.304;4.870;2024-03-02T00:00:03;2.60;;;0.40;;
69244;SDS011;56357;52.304;4.870;2024-03-02T00:02:45;2.88;;;0.43;;
69244;SDS011;56357;52.304;4.870;2024-03-02T00:05:13;2.13;;;0.30;;
69244;SDS011;56357;52.304;4.870;2024-03-02T00:07:41;2.50;;;0.30;;
69244;SDS011;56357;52.304;4.870;2024-03-02T00:10:10;2.35;;;0.30;;
69244;SDS011;56357;52.304;4.870;2024-03-02T00:12:38;2.67;;;0.35;;
69244;SDS011;56357;52.304;4.870;2024-03-02T00:15:17;2.67;;;0.30;;
69244;SDS011;56357;52.304;4.870;2024-03-02T00:18:08;3.40;;;0.50;;
69244;SDS011;56357;52.304;4.870;2024-03-02T00:20:40;2.73;;;0.30;;
69244;SDS011;56357;52.304;4.870;2024-03-02T00:23:07;3.42;;;0.40;;
69244;SDS011;56357;52.304;4.870;2024-03-02T00:25:40;3.35;;;0.50;;
69244;SDS011;56357;52.304;4.870;2024-03-02T00:28:50;2.58;;;0.30;;
69244;SDS011;56357;52.304;4.870;2024-03-02T00:33:40;4.03;;;0.40;;
69244;SDS011;56357;52.304;4.870;2024-03-02T00:36:24;2.08;;;0.30;;
69244;SDS011;56357;52.304;4.870;2024-03-02T00:38:52;4.72;;;0.50;;
69244;SDS011;56357;52.304;4.870;2024-03-02T00:41:29;3.38;;;0.40;;
69244;SDS011;56357;52.304;4.870;2024-03-02T00:44:00;2.38;;;0.30;;
69244;SDS011;56357;52.304;4.870;2024-03-02T00:46:41;2.00;;;0.30;;
69244;SDS011;56357;52.304;4.870;2024-03-02T00:51:48;2.20;;;0.30;;
69244;SDS011;56357;52.304;4.870;2024-03-02T00:54:18;2.03;;;0.40;;
69244;SDS011;56357;52.304;4.870;2024-03-02T00:56:46;3.25;;;0.30;;
69244;SDS011;56357;52.304;4.870;2024-03-02T00:59:13;2.80;;;0.40;;
69244;SDS011;56357;52.304;4.870;2024-03-02T01:01:39;2.92;;;0.30;;
69244;SDS011;56357;52.304;4.870;2024-03-02T01:04:07;1.70;;;0.20;;
69244;SDS011;56357;52.304;4.870;2024-03-02T01:06:34;2.90;;;0.40;;
69244;SDS011;56357;52.304;4.870;2024-03-02T01:09:01;2.03;;;0.30;;
69244;SDS011;56357;52.304;4.870;2024-03-02T01:11:28;3.03;;;0.43;;
69244;SDS011;56357;52.304;4.870;2024-03-02T01:13:55;2.45;;;0.30;;
69244;SDS011;56357;52.304;4.870;2024-03-02T01:16:21;1.92;;;0.30;;
69244;SDS011;56357;52.304;4.870;2024-03-02T01:18:48;2.72;;;0.32;;
69244;SDS011;56357;52.304;4.870;2024-03-02T01:21:14;2.58;;;0.35;;
69244;SDS011;56357;52.304;4.870;2024-03-02T01:23:41;2.63;;;0.40;;
69244;SDS011;56357;52.304;4.870;2024-03-02T01:26:08;2.00;;;0.30;;
69244;SDS011;56357;52.304;4.870;2024-03-02T01:28:34;4.80;;;0.40;;
69244;SDS011;56357;52.304;4.870;2024-03-02T01:31:01;2.15;;;0.30;;
69244;SDS011;56357;52.304;4.870;2024-03-02T01:33:27;2.38;;;0.32;;
69244;SDS011;56357;52.304;4.870;2024-03-02T01:35:54;2.87;;;0.30;;
69244;SDS011;56357;52.304;4.870;2024-03-02T01:38:20;3.03;;;0.30;;
69244;SDS011;56357;52.304;4.870;2024-03-02T01:40:46;2.13;;;0.30;;
69244;SDS011;56357;52.304;4.870;2024-03-02T01:43:13;1.80;;;0.32;;
69244;SDS011;56357;52.304;4.870;2024-03-02T01:45:39;3.10;;;0.32;;
69244;SDS011;56357;52.304;4.870;2024-03-02T01:48:06;2.83;;;0.20;;
69244;SDS011;56357;52.304;4.870;2024-03-02T01:50:33;2.63;;;0.45;;
69244;SDS011;56357;52.304;4.870;2024-03-02T01:53:00;2.55;;;0.40;;
69244;SDS011;56357;52.304;4.870;2024-03-02T01:55:27;2.13;;;0.32;;
69244;SDS011;56357;52.304;4.870;2024-03-02T01:57:55;2.92;;;0.60;;
69244;SDS011;56357;52.304;4.870;2024-03-02T02:00:21;1.60;;;0.20;;
69244;SDS011;56357;52.304;4.870;2024-03-02T02:02:49;2.53;;;0.38;;
69244;SDS011;56357;52.304;4.870;2024-03-02T02:05:16;2.38;;;0.20;;
69244;SDS011;56357;52.304;4.870;2024-03-02T02:07:43;2.30;;;0.30;;
69244;SDS011;56357;52.304;4.870;2024-03-02T02:10:10;2.53;;;0.30;;
69244;SDS011;56357;52.304;4.870;2024-03-02T02:12:37;2.10;;;0.30;;
69244;SDS011;56357;52.304;4.870;2024-03-02T02:15:04;2.10;;;0.35;;
69244;SDS011;56357;52.304;4.870;2024-03-02T02:17:47;1.83;;;0.20;;
69244;SDS011;56357;52.304;4.870;2024-03-02T02:20:14;1.63;;;0.20;;
69244;SDS011;56357;52.304;4.870;2024-03-02T02:22:40;1.98;;;0.25;;
69244;SDS011;56357;52.304;4.870;2024-03-02T02:25:18;2.63;;;0.40;;
69244;SDS011;56357;52.304;4.870;2024-03-02T02:27:44;1.98;;;0.20;;
69244;SDS011;56357;52.304;4.870;2024-03-02T02:30:11;1.90;;;0.20;;
69244;SDS011;56357;52.304;4.870;2024-03-02T02:32:37;1.85;;;0.30;;
69244;SDS011;56357;52.304;4.870;2024-03-02T02:35:04;2.60;;;0.38;;
69244;SDS011;56357;52.304;4.870;2024-03-02T02:37:31;2.37;;;0.40;;
69244;SDS011;56357;52.304;4.870;2024-03-02T02:39:57;1.73;;;0.30;;
69244;SDS011;56357;52.304;4.870;2024-03-02T02:42:23;1.67;;;0.20;;
69244;SDS011;56357;52.304;4.870;2024-03-02T02:44:50;1.67;;;0.30;;
69244;SDS011;56357;52.304;4.870;2024-03-02T02:47:16;1.80;;;0.20;;
69244;SDS011;56357;52.304;4.870;2024-03-02T02:49:42;1.90;;;0.20;;
69244;SDS011;56357;52.304;4.870;2024-03-02T02:52:09;2.05;;;0.30;;
69244;SDS011;56357;52.304;4.870;2024-03-02T02:54:37;2.72;;;0.32;;
69244;SDS011;56357;52.304;4.870;2024-03-02T02:57:03;2.20;;;0.40;;
69244;SDS011;56357;52.304;4.870;2024-03-02T02:59:30;2.45;;;0.30;;
69244;SDS011;56357;52.304;4.870;2024-03-02T03:01:56;2.17;;;0.40;;
69244;SDS011;56357;52.304;4.870;2024-03-02T03:04:23;2.80;;;0.30;;
69244;SDS011;56357;52.304;4.870;2024-03-02T03:06:49;1.75;;;0.20;;
69244;SDS011;56357;52.304;4.870;2024-03-02T03:09:15;1.70;;;0.30;;
69244;SDS011;56357;52.304;4.870;2024-03-02T03:11:42;1.83;;;0.30;;
69244;SDS011;56357;52.304;4.870;2024-03-02T03:14:08;1.73;;;0.20;;
69244;SDS011;56357;52.304;4.870;2024-03-02T03:16:34;2.30;;;0.30;;
69244;SDS011;56357;52.304;4.870;2024-03-02T03:19:01;2.13;;;0.20;;
69244;SDS011;56357;52.304;4.870;2024-03-02T03:21:27;1.50;;;0.20;;
69244;SDS011;56357;52.304;4.870;2024-03-02T03:23:53;1.58;;;0.20;;
69244;SDS011;56357;52.304;4.870;2024-03-02T03:26:20;1.90;;;0.30;;
69244;SDS011;56357;52.304;4.870;2024-03-02T03:28:46;1.63;;;0.20;;
69244;SDS011;56357;52.304;4.870;2024-03-02T03:31:13;2.85;;;0.20;;
69244;SDS011;56357;52.304;4.870;2024-03-02T03:33:39;2.70;;;0.30;;
69244;SDS011;56357;52.304;4.870;2024-03-02T03:36:05;1.90;;;0.30;;
69244;SDS011;56357;52.304;4.870;2024-03-02T03:38:32;1.87;;;0.40;;
69244;SDS011;56357;52.304;4.870;2024-03-02T03:40:58;1.40;;;0.20;;
69244;SDS011;56357;52.304;4.870;2024-03-02T03:43:25;2.17;;;0.20;;
69244;SDS011;56357;52.304;4.870;2024-03-02T03:45:51;1.95;;;0.30;;
69244;SDS011;56357;52.304;4.870;2024-03-02T03:48:17;1.65;;;0.20;;
69244;SDS011;56357;52.304;4.870;2024-03-02T03:50:44;3.33;;;0.30;;
69244;SDS011;56357;52.304;4.870;2024-03-02T03:53:11;1.90;;;0.30;;
69244;SDS011;56357;52.304;4.870;2024-03-02T03:55:37;2.28;;;0.30;;
69244;SDS011;56357;52.304;4.870;2024-03-02T03:58:03;1.70;;;0.20;;
69244;SDS011;56357;52.304;4.870;2024-03-02T04:00:30;2.65;;;0.40;;
69244;SDS011;56357;52.304;4.870;2024-03-02T04:02:56;1.97;;;0.20;;
69244;SDS011;56357;52.304;4.870;2024-03-02T04:05:22;2.58;;;0.32;;
69244;SDS011;56357;52.304;4.870;2024-03-02T04:07:49;1.77;;;0.20;;
69244;SDS011;56357;52.304;4.870;2024-03-02T04:10:15;2.15;;;0.30;;
69244;SDS011;56357;52.304;4.870;2024-03-02T04:12:42;1.92;;;0.20;;
69244;SDS011;56357;52.304;4.870;2024-03-02T04:15:08;1.67;;;0.20;;
69244;SDS011;56357;52.304;4.870;2024-03-02T04:17:35;1.60;;;0.20;;
69244;SDS011;56357;52.304;4.870;2024-03-02T04:20:01;1.52;;;0.20;;
69244;SDS011;56357;52.304;4.870;2024-03-02T04:22:29;1.73;;;0.22;;
69244;SDS011;56357;52.304;4.870;2024-03-02T04:24:56;2.55;;;0.30;;
69244;SDS011;56357;52.304;4.870;2024-03-02T04:27:22;1.90;;;0.30;;
69244;SDS011;56357;52.304;4.870;2024-03-02T04:29:48;1.80;;;0.20;;
69244;SDS011;56357;52.304;4.870;2024-03-02T04:32:15;2.38;;;0.20;;
69244;SDS011;56357;52.304;4.870;2024-03-02T04:34:41;2.08;;;0.30;;
69244;SDS011;56357;52.304;4.870;2024-03-02T04:37:08;2.17;;;0.30;;
69244;SDS011;56357;52.304;4.870;2024-03-02T04:39:35;1.63;;;0.30;;
69244;SDS011;56357;52.304;4.870;2024-03-02T04:42:02;2.28;;;0.22;;
69244;SDS011;56357;52.304;4.870;2024-03-02T04:44:28;1.60;;;0.20;;
69244;SDS011;56357;52.304;4.870;2024-03-02T04:46:55;2.45;;;0.30;;
69244;SDS011;56357;52.304;4.870;2024-03-02T04:49:21;1.90;;;0.20;;
69244;SDS011;56357;52.304;4.870;2024-03-02T04:51:47;2.63;;;0.43;;
69244;SDS011;56357;52.304;4.870;2024-03-02T04:54:14;1.90;;;0.22;;
69244;SDS011;56357;52.304;4.870;2024-03-02T04:56:40;2.60;;;0.30;;
69244;SDS011;56357;52.304;4.870;2024-03-02T04:59:14;1.70;;;0.30;;
69244;SDS011;56357;52.304;4.870;2024-03-02T05:01:40;2.20;;;0.40;;
69244;SDS011;56357;52.304;4.870;2024-03-02T05:04:07;2.17;;;0.30;;
69244;SDS011;56357;52.304;4.870;2024-03-02T05:06:33;1.40;;;0.20;;
69244;SDS011;56357;52.304;4.870;2024-03-02T05:09:00;2.00;;;0.30;;
69244;SDS011;56357;52.304;4.870;2024-03-02T05:11:26;2.20;;;0.40;;
69244;SDS011;56357;52.304;4.870;2024-03-02T05:14:13;1.83;;;0.28;;
69244;SDS011;56357;52.304;4.870;2024-03-02T05:16:40;1.53;;;0.20;;
69244;SDS011;56357;52.304;4.870;2024-03-02T05:19:07;1.20;;;0.20;;
69244;SDS011;56357;52.304;4.870;2024-03-02T05:21:33;2.05;;;0.20;;
69244;SDS011;56357;52.304;4.870;2024-03-02T05:24:00;2.00;;;0.20;;
69244;SDS011;56357;52.304;4.870;2024-03-02T05:26:27;2.45;;;0.20;;
69244;SDS011;56357;52.304;4.870;2024-03-02T05:28:53;2.23;;;0.20;;
69244;SDS011;56357;52.304;4.870;2024-03-02T05:31:20;2.17;;;0.30;;
69244;SDS011;56357;52.304;4.870;2024-03-02T05:33:46;3.53;;;0.30;;
69244;SDS011;56357;52.304;4.870;2024-03-02T05:36:12;2.20;;;0.30;;
69244;SDS011;56357;52.304;4.870;2024-03-02T05:38:39;2.78;;;0.30;;
69244;SDS011;56357;52.304;4.870;2024-03-02T05:41:05;1.43;;;0.20;;
69244;SDS011;56357;52.304;4.870;2024-03-02T05:43:32;3.72;;;0.20;;
69244;SDS011;56357;52.304;4.870;2024-03-02T05:45:58;1.63;;;0.20;;
69244;SDS011;56357;52.304;4.870;2024-03-02T05:48:25;1.42;;;0.20;;
69244;SDS011;56357;52.304;4.870;2024-03-02T05:50:51;1.42;;;0.20;;
69244;SDS011;56357;52.304;4.870;2024-03-02T05:53:17;1.60;;;0.20;;
69244;SDS011;56357;52.304;4.870;2024-03-02T05:55:44;2.08;;;0.22;;
69244;SDS011;56357;52.304;4.870;2024-03-02T05:58:11;1.60;;;0.20;;
69244;SDS011;56357;52.304;4.870;2024-03-02T06:00:52;2.38;;;0.32;;
69244;SDS011;56357;52.304;4.870;2024-03-02T06:03:19;2.22;;;0.43;;
69244;SDS011;56357;52.304;4.870;2024-03-02T06:05:45;1.67;;;0.27;;
69244;SDS011;56357;52.304;4.870;2024-03-02T06:08:14;1.63;;;0.35;;
69244;SDS011;56357;52.304;4.870;2024-03-02T06:10:40;1.45;;;0.20;;
69244;SDS011;56357;52.304;4.870;2024-03-02T06:13:07;2.20;;;0.30;;
69244;SDS011;56357;52.304;4.870;2024-03-02T06:15:33;1.75;;;0.40;;
69244;SDS011;56357;52.304;4.870;2024-03-02T06:18:01;1.43;;;0.20;;
69244;SDS011;56357;52.304;4.870;2024-03-02T06:20:27;2.75;;;0.30;;
69244;SDS011;56357;52.304;4.870;2024-03-02T06:22:55;2.30;;;0.20;;
69244;SDS011;56357;52.304;4.870;2024-03-02T06:25:22;1.40;;;0.20;;
69244;SDS011;56357;52.304;4.870;2024-03-02T06:27:48;3.13;;;0.40;;
69244;SDS011;56357;52.304;4.870;2024-03-02T06:30:15;1.60;;;0.23;;
69244;SDS011;56357;52.304;4.870;2024-03-02T06:32:41;1.80;;;0.30;;
69244;SDS011;56357;52.304;4.870;2024-03-02T06:35:08;1.95;;;0.20;;
69244;SDS011;56357;52.304;4.870;2024-03-02T06:37:36;2.28;;;0.40;;
69244;SDS011;56357;52.304;4.870;2024-03-02T06:40:04;1.95;;;0.20;;
69244;SDS011;56357;52.304;4.870;2024-03-02T06:42:32;2.40;;;0.30;;
69244;SDS011;56357;52.304;4.870;2024-03-02T06:44:59;2.60;;;0.22;;
69244;SDS011;56357;52.304;4.870;2024-03-02T06:47:26;1.40;;;0.20;;
69244;SDS011;56357;52.304;4.870;2024-03-02T06:49:52;2.13;;;0.30;;
69244;SDS011;56357;52.304;4.870;2024-03-02T06:52:19;2.10;;;0.30;;
69244;SDS011;56357;52.304;4.870;2024-03-02T06:54:45;1.97;;;0.30;;
69244;SDS011;56357;52.304;4.870;2024-03-02T06:57:12;3.97;;;0.30;;
69244;SDS011;56357;52.304;4.870;2024-03-02T06:59:38;2.00;;;0.30;;
69244;SDS011;56357;52.304;4.870;2024-03-02T07:02:05;2.90;;;0.28;;
69244;SDS011;56357;52.304;4.870;2024-03-02T07:04:31;2.60;;;0.50;;
69244;SDS011;56357;52.304;4.870;2024-03-02T07:06:58;2.63;;;0.40;;
69244;SDS011;56357;52.304;4.870;2024-03-02T07:09:24;1.80;;;0.30;;
69244;SDS011;56357;52.304;4.870;2024-03-02T07:11:51;2.10;;;0.30;;
69244;SDS011;56357;52.304;4.870;2024-03-02T07:14:17;4.07;;;0.32;;
69244;SDS011;56357;52.304;4.870;2024-03-02T07:16:47;2.60;;;0.40;;
69244;SDS011;56357;52.304;4.870;2024-03-02T07:19:12;4.13;;;0.40;;
69244;SDS011;56357;52.304;4.870;2024-03-02T07:21:39;2.88;;;0.30;;
69244;SDS011;56357;52.304;4.870;2024-03-02T07:24:05;3.03;;;0.40;;
69244;SDS011;56357;52.304;4.870;2024-03-02T07:26:34;3.33;;;0.20;;
69244;SDS011;56357;52.304;4.870;2024-03-02T07:29:00;2.33;;;0.20;;
69244;SDS011;56357;52.304;4.870;2024-03-02T07:31:27;2.63;;;0.30;;
69244;SDS011;56357;52.304;4.870;2024-03-02T07:33:53;2.75;;;0.20;;
69244;SDS011;56357;52.304;4.870;2024-03-02T07:36:20;3.47;;;0.30;;
69244;SDS011;56357;52.304;4.870;2024-03-02T07:38:46;3.13;;;0.30;;
69244;SDS011;56357;52.304;4.870;2024-03-02T07:41:15;4.40;;;0.40;;
69244;SDS011;56357;52.304;4.870;2024-03-02T07:43:41;6.50;;;0.60;;
69244;SDS011;56357;52.304;4.870;2024-03-02T07:46:08;8.93;;;0.80;;
69244;SDS011;56357;52.304;4.870;2024-03-02T07:48:34;9.40;;;0.60;;
69244;SDS011;56357;52.304;4.870;2024-03-02T07:51:00;8.02;;;0.30;;
69244;SDS011;56357;52.304;4.870;2024-03-02T07:53:27;6.55;;;0.68;;
69244;SDS011;56357;52.304;4.870;2024-03-02T07:55:54;7.70;;;0.60;;
69244;SDS011;56357;52.304;4.870;2024-03-02T07:58:21;5.88;;;0.40;;
69244;SDS011;56357;52.304;4.870;2024-03-02T08:00:48;9.23;;;0.70;;
69244;SDS011;56357;52.304;4.870;2024-03-02T08:03:14;6.72;;;0.80;;
69244;SDS011;56357;52.304;4.870;2024-03-02T08:05:41;6.93;;;0.40;;
69244;SDS011;56357;52.304;4.870;2024-03-02T08:08:07;6.82;;;0.88;;
69244;SDS011;56357;52.304;4.870;2024-03-02T08:10:34;5.25;;;0.50;;
69244;SDS011;56357;52.304;4.870;2024-03-02T08:13:00;11.83;;;0.50;;
69244;SDS011;56357;52.304;4.870;2024-03-02T08:15:27;7.85;;;0.55;;
69244;SDS011;56357;52.304;4.870;2024-03-02T08:17:53;7.97;;;0.65;;
69244;SDS011;56357;52.304;4.870;2024-03-02T08:20:21;6.40;;;0.30;;
69244;SDS011;56357;52.304;4.870;2024-03-02T08:22:47;4.78;;;0.60;;
69244;SDS011;56357;52.304;4.870;2024-03-02T08:25:14;9.70;;;0.77;;
69244;SDS011;56357;52.304;4.870;2024-03-02T08:27:40;7.07;;;0.60;;
69244;SDS011;56357;52.304;4.870;2024-03-02T08:30:07;4.82;;;0.40;;
69244;SDS011;56357;52.304;4.870;2024-03-02T08:32:35;3.92;;;0.40;;
69244;SDS011;56357;52.304;4.870;2024-03-02T08:35:02;6.25;;;0.55;;
69244;SDS011;56357;52.304;4.870;2024-03-02T08:37:28;4.10;;;0.40;;
69244;SDS011;56357;52.304;4.870;2024-03-02T08:39:55;8.23;;;0.80;;
69244;SDS011;56357;52.304;4.870;2024-03-02T08:42:21;5.35;;;0.57;;
69244;SDS011;56357;52.304;4.870;2024-03-02T08:44:48;5.20;;;0.63;;
69244;SDS011;56357;52.304;4.870;2024-03-02T08:47:15;4.00;;;0.45;;
69244;SDS011;56357;52.304;4.870;2024-03-02T08:49:42;5.53;;;0.30;;
69244;SDS011;56357;52.304;4.870;2024-03-02T08:52:08;6.15;;;0.40;;
69244;SDS011;56357;52.304;4.870;2024-03-02T08:54:35;4.13;;;0.38;;
69244;SDS011;56357;52.304;4.870;2024-03-02T08:57:02;4.35;;;0.45;;
69244;SDS011;56357;52.304;4.870;2024-03-02T08:59:29;4.32;;;0.32;;
69244;SDS011;56357;52.304;4.870;2024-03-02T09:01:56;7.07;;;0.50;;
69244;SDS011;56357;52.304;4.870;2024-03-02T09:04:23;5.82;;;0.50;;
69244;SDS011;56357;52.304;4.870;2024-03-02T09:06:50;3.05;;;0.40;;
69244;SDS011;56357;52.304;4.870;2024-03-02T09:09:16;3.95;;;0.55;;
69244;SDS011;56357;52.304;4.870;2024-03-02T09:11:43;3.80;;;0.40;;
69244;SDS011;56357;52.304;4.870;2024-03-02T09:14:09;5.10;;;0.60;;
69244;SDS011;56357;52.304;4.870;2024-03-02T09:16:35;6.78;;;0.50;;
69244;SDS011;56357;52.304;4.870;2024-03-02T09:19:02;6.50;;;0.60;;
69244;SDS011;56357;52.304;4.870;2024-03-02T09:21:28;6.10;;;0.85;;
69244;SDS011;56357;52.304;4.870;2024-03-02T09:23:55;4.95;;;0.38;;
69244;SDS011;56357;52.304;4.870;2024-03-02T09:26:22;4.87;;;0.30;;
69244;SDS011;56357;52.304;4.870;2024-03-02T09:28:50;4.45;;;0.40;;
69244;SDS011;56357;52.304;4.870;2024-03-02T09:31:17;7.13;;;0.70;;
69244;SDS011;56357;52.304;4.870;2024-03-02T09:33:43;3.28;;;0.55;;
69244;SDS011;56357;52.304;4.870;2024-03-02T09:36:19;5.97;;;0.63;;
69244;SDS011;56357;52.304;4.870;2024-03-02T09:38:49;3.67;;;0.40;;
69244;SDS011;56357;52.304;4.870;2024-03-02T09:41:16;5.45;;;0.60;;
69244;SDS011;56357;52.304;4.870;2024-03-02T09:43:42;5.40;;;0.40;;
69244;SDS011;56357;52.304;4.870;2024-03-02T09:46:09;6.07;;;0.70;;
69244;SDS011;56357;52.304;4.870;2024-03-02T09:48:36;4.15;;;0.55;;
69244;SDS011;56357;52.304;4.870;2024-03-02T09:51:02;4.20;;;0.67;;
69244;SDS011;56357;52.304;4.870;2024-03-02T09:53:31;5.80;;;0.43;;
69244;SDS011;56357;52.304;4.870;2024-03-02T09:55:59;3.92;;;0.52;;
69244;SDS011;56357;52.304;4.870;2024-03-02T09:58:26;4.25;;;0.40;;
69244;SDS011;56357;52.304;4.870;2024-03-02T10:00:52;3.95;;;0.30;;
69244;SDS011;56357;52.304;4.870;2024-03-02T10:03:19;5.37;;;0.40;;
69244;SDS011;56357;52.304;4.870;2024-03-02T10:05:46;4.05;;;0.50;;
69244;SDS011;56357;52.304;4.870;2024-03-02T10:08:12;3.92;;;0.50;;
69244;SDS011;56357;52.304;4.870;2024-03-02T10:10:39;4.75;;;0.57;;
69244;SDS011;56357;52.304;4.870;2024-03-02T10:13:08;4.00;;;0.40;;
69244;SDS011;56357;52.304;4.870;2024-03-02T10:15:39;6.10;;;0.40;;
69244;SDS011;56357;52.304;4.870;2024-03-02T10:18:10;4.75;;;0.75;;
69244;SDS011;56357;52.304;4.870;2024-03-02T10:20:37;4.15;;;0.60;;
69244;SDS011;56357;52.304;4.870;2024-03-02T10:23:14;7.40;;;0.60;;
69244;SDS011;56357;52.304;4.870;2024-03-02T10:25:42;5.40;;;0.40;;
69244;SDS011;56357;52.304;4.870;2024-03-02T10:28:10;4.13;;;0.60;;
69244;SDS011;56357;52.304;4.870;2024-03-02T10:30:36;4.97;;;0.52;;
69244;SDS011;56357;52.304;4.870;2024-03-02T10:33:03;5.25;;;0.35;;
69244;SDS011;56357;52.304;4.870;2024-03-02T10:35:31;4.72;;;0.40;;
69244;SDS011;56357;52.304;4.870;2024-03-02T10:38:01;6.25;;;0.60;;
69244;SDS011;56357;52.304;4.870;2024-03-02T10:40:30;5.47;;;0.60;;
69244;SDS011;56357;52.304;4.870;2024-03-02T10:42:57;6.97;;;0.57;;
69244;SDS011;56357;52.304;4.870;2024-03-02T10:45:25;6.18;;;0.57;;
69244;SDS011;56357;52.304;4.870;2024-03-02T10:47:51;6.30;;;0.75;;
69244;SDS011;56357;52.304;4.870;2024-03-02T10:50:18;5.15;;;0.55;;
69244;SDS011;56357;52.304;4.870;2024-03-02T10:52:44;7.17;;;0.50;;
69244;SDS011;56357;52.304;4.870;2024-03-02T10:55:11;10.07;;;0.63;;
69244;SDS011;56357;52.304;4.870;2024-03-02T10:57:41;5.45;;;0.60;;
69244;SDS011;56357;52.304;4.870;2024-03-02T11:00:18;4.03;;;0.40;;
69244;SDS011;56357;52.304;4.870;2024-03-02T11:02:50;7.10;;;0.73;;
69244;SDS011;56357;52.304;4.870;2024-03-02T11:05:36;3.50;;;0.50;;
69244;SDS011;56357;52.304;4.870;2024-03-02T11:08:07;7.50;;;0.65;;
69244;SDS011;56357;52.304;4.870;2024-03-02T11:10:36;15.63;;;0.98;;
69244;SDS011;56357;52.304;4.870;2024-03-02T11:13:11;5.32;;;0.32;;
69244;SDS011;56357;52.304;4.870;2024-03-02T11:15:39;6.00;;;0.70;;
69244;SDS011;56357;52.304;4.870;2024-03-02T11:18:06;8.40;;;0.60;;
69244;SDS011;56357;52.304;4.870;2024-03-02T11:20:38;5.95;;;0.60;;
69244;SDS011;56357;52.304;4.870;2024-03-02T11:23:05;7.07;;;0.70;;
69244;SDS011;56357;52.304;4.870;2024-03-02T11:25:32;5.13;;;0.40;;
69244;SDS011;56357;52.304;4.870;2024-03-02T11:28:00;6.47;;;0.88;;
69244;SDS011;56357;52.304;4.870;2024-03-02T11:33:03;8.32;;;0.80;;
69244;SDS011;56357;52.304;4.870;2024-03-02T11:35:36;6.35;;;0.50;;
69244;SDS011;56357;52.304;4.870;2024-03-02T11:38:03;7.63;;;0.90;;
69244;SDS011;56357;52.304;4.870;2024-03-02T11:40:30;4.65;;;0.57;;
69244;SDS011;56357;52.304;4.870;2024-03-02T11:42:57;4.70;;;0.53;;
69244;SDS011;56357;52.304;4.870;2024-03-02T11:45:26;6.40;;;0.63;;
69244;SDS011;56357;52.304;4.870;2024-03-02T11:47:56;6.05;;;0.50;;
69244;SDS011;56357;52.304;4.870;2024-03-02T11:50:31;5.78;;;0.70;;
69244;SDS011;56357;52.304;4.870;2024-03-02T11:53:00;6.90;;;0.40;;
69244;SDS011;56357;52.304;4.870;2024-03-02T11:55:27;3.60;;;0.40;;
69244;SDS011;56357;52.304;4.870;2024-03-02T11:57:56;7.47;;;0.57;;
69244;SDS011;56357;52.304;4.870;2024-03-02T12:00:24;3.80;;;0.50;;
69244;SDS011;56357;52.304;4.870;2024-03-02T12:03:00;6.80;;;0.80;;
69244;SDS011;56357;52.304;4.870;2024-03-02T12:05:28;6.93;;;0.60;;
69244;SDS011;56357;52.304;4.870;2024-03-02T12:07:57;8.47;;;0.70;;
69244;SDS011;56357;52.304;4.870;2024-03-02T12:10:24;4.90;;;0.80;;
69244;SDS011;56357;52.304;4.870;2024-03-02T12:13:10;4.95;;;0.45;;
69244;SDS011;56357;52.304;4.870;2024-03-02T12:15:37;4.90;;;0.60;;
69244;SDS011;56357;52.304;4.870;2024-03-02T12:18:04;4.80;;;0.57;;
69244;SDS011;56357;52.304;4.870;2024-03-02T12:20:32;4.00;;;0.50;;
69244;SDS011;56357;52.304;4.870;2024-03-02T12:22:59;5.05;;;0.60;;
69244;SDS011;56357;52.304;4.870;2024-03-02T12:25:27;3.90;;;0.57;;
69244;SDS011;56357;52.304;4.870;2024-03-02T12:27:54;4.72;;;0.77;;
69244;SDS011;56357;52.304;4.870;2024-03-02T12:30:23;5.53;;;0.60;;
69244;SDS011;56357;52.304;4.870;2024-03-02T12:32:50;6.23;;;0.50;;
69244;SDS011;56357;52.304;4.870;2024-03-02T12:35:17;4.68;;;0.40;;
69244;SDS011;56357;52.304;4.870;2024-03-02T12:37:45;5.00;;;0.40;;
69244;SDS011;56357;52.304;4.870;2024-03-02T12:40:13;4.95;;;0.50;;
69244;SDS011;56357;52.304;4.870;2024-03-02T12:42:42;5.30;;;0.80;;
69244;SDS011;56357;52.304;4.870;2024-03-02T12:45:09;4.30;;;0.80;;
69244;SDS011;56357;52.304;4.870;2024-03-02T12:47:36;2.15;;;0.30;;
69244;SDS011;56357;52.304;4.870;2024-03-02T12:50:03;4.72;;;0.50;;
69244;SDS011;56357;52.304;4.870;2024-03-02T12:52:30;3.80;;;0.40;;
69244;SDS011;56357;52.304;4.870;2024-03-02T12:54:59;3.63;;;0.30;;
69244;SDS011;56357;52.304;4.870;2024-03-02T12:57:30;5.60;;;0.60;;
69244;SDS011;56357;52.304;4.870;2024-03-02T13:00:01;5.78;;;0.47;;
69244;SDS011;56357;52.304;4.870;2024-03-02T13:02:34;4.20;;;0.38;;
69244;SDS011;56357;52.304;4.870;2024-03-02T13:05:01;3.58;;;0.52;;
69244;SDS011;56357;52.304;4.870;2024-03-02T13:07:28;4.72;;;0.55;;
69244;SDS011;56357;52.304;4.870;2024-03-02T13:09:55;3.87;;;0.40;;
69244;SDS011;56357;52.304;4.870;2024-03-02T13:12:25;4.20;;;0.70;;
69244;SDS011;56357;52.304;4.870;2024-03-02T13:14:51;3.70;;;0.57;;
69244;SDS011;56357;52.304;4.870;2024-03-02T13:17:18;1.92;;;0.25;;
69244;SDS011;56357;52.304;4.870;2024-03-02T13:20:18;3.35;;;0.30;;
69244;SDS011;56357;52.304;4.870;2024-03-02T13:22:39;4.33;;;0.47;;
69244;SDS011;56357;52.304;4.870;2024-03-02T13:25:06;4.88;;;0.63;;
69244;SDS011;56357;52.304;4.870;2024-03-02T13:27:35;5.63;;;0.40;;
69244;SDS011;56357;52.304;4.870;2024-03-02T13:30:02;3.40;;;0.40;;
69244;SDS011;56357;52.304;4.870;2024-03-02T13:32:30;1.90;;;0.30;;
69244;SDS011;56357;52.304;4.870;2024-03-02T13:34:57;3.73;;;0.30;;
69244;SDS011;56357;52.304;4.870;2024-03-02T13:37:24;3.03;;;0.30;;
69244;SDS011;56357;52.304;4.870;2024-03-02T13:39:50;3.40;;;0.30;;
69244;SDS011;56357;52.304;4.870;2024-03-02T13:42:16;3.40;;;0.50;;
69244;SDS011;56357;52.304;4.870;2024-03-02T13:44:43;5.63;;;0.40;;
69244;SDS011;56357;52.304;4.870;2024-03-02T13:47:10;3.93;;;0.30;;
69244;SDS011;56357;52.304;4.870;2024-03-02T13:49:36;2.92;;;0.50;;
69244;SDS011;56357;52.304;4.870;2024-03-02T13:52:04;2.75;;;0.20;;
69244;SDS011;56357;52.304;4.870;2024-03-02T13:54:39;5.53;;;0.40;;
69244;SDS011;56357;52.304;4.870;2024-03-02T13:57:06;4.05;;;0.38;;
69244;SDS011;56357;52.304;4.870;2024-03-02T13:59:34;3.78;;;0.35;;
69244;SDS011;56357;52.304;4.870;2024-03-02T14:02:01;2.55;;;0.30;;
69244;SDS011;56357;52.304;4.870;2024-03-02T14:04:32;5.53;;;0.40;;
69244;SDS011;56357;52.304;4.870;2024-03-02T14:07:00;4.70;;;0.40;;
69244;SDS011;56357;52.304;4.870;2024-03-02T14:09:27;3.30;;;0.50;;
69244;SDS011;56357;52.304;4.870;2024-03-02T14:11:55;4.20;;;0.43;;
69244;SDS011;56357;52.304;4.870;2024-03-02T14:14:21;5.03;;;0.40;;
69244;SDS011;56357;52.304;4.870;2024-03-02T14:16:48;3.50;;;0.30;;
69244;SDS011;56357;52.304;4.870;2024-03-02T14:19:15;4.07;;;0.30;;
69244;SDS011;56357;52.304;4.870;2024-03-02T14:21:41;3.22;;;0.40;;
69244;SDS011;56357;52.304;4.870;2024-03-02T14:24:08;3.05;;;0.60;;
69244;SDS011;56357;52.304;4.870;2024-03-02T14:26:35;3.38;;;0.30;;
69244;SDS011;56357;52.304;4.870;2024-03-02T14:29:03;2.85;;;0.30;;
69244;SDS011;56357;52.304;4.870;2024-03-02T14:31:29;2.73;;;0.30;;
69244;SDS011;56357;52.304;4.870;2024-03-02T14:34:02;4.60;;;0.47;;
69244;SDS011;56357;52.304;4.870;2024-03-02T14:36:29;6.53;;;0.50;;
69244;SDS011;56357;52.304;4.870;2024-03-02T14:38:55;3.35;;;0.30;;
69244;SDS011;56357;52.304;4.870;2024-03-02T14:41:22;3.65;;;0.50;;
69244;SDS011;56357;52.304;4.870;2024-03-02T14:43:49;4.57;;;0.47;;
69244;SDS011;56357;52.304;4.870;2024-03-02T14:46:16;4.82;;;0.50;;
69244;SDS011;56357;52.304;4.870;2024-03-02T14:48:43;6.15;;;0.47;;
69244;SDS011;56357;52.304;4.870;2024-03-02T14:51:11;5.00;;;0.47;;
69244;SDS011;56357;52.304;4.870;2024-03-02T14:53:38;4.90;;;0.50;;
69244;SDS011;56357;52.304;4.870;2024-03-02T14:56:05;3.80;;;0.40;;
69244;SDS011;56357;52.304;4.870;2024-03-02T14:58:31;6.43;;;0.63;;